Time;durP1;ratioP1;P1;durP2;ratioP2;P2;SDS_P1;SDS_P2;PMS_P1;PMS_P2;Temp;Humidity;BMP_temperature;BMP_pressure;BME280_temperature;BME280_humidity;BME280_pressure;Samples;Min_cycle;Max_cycle;Signal;HPM_P1;HPM_P2
2021/03/11 00:02:23;;;;;;;28.45;17.48;;;;;;;5.05;57.12;96095.34;5075842;28;20389;-75
2021/03/11 00:04:49;;;;;;;27.45;17.27;;;;;;;5.07;56.74;96085.56;5075714;28;20396;-74
2021/03/11 00:07:15;;;;;;;29.30;17.20;;;;;;;5.06;56.87;96079.56;5075685;28;20396;-74
2021/03/11 00:09:42;;;;;;;28.70;17.73;;;;;;;5.07;56.82;96077.78;5075710;28;20393;-74
2021/03/11 00:12:09;;;;;;;37.17;18.95;;;;;;;5.07;56.57;96081.16;5075426;28;20032;-74
2021/03/11 00:14:36;;;;;;;32.03;18.05;;;;;;;5.06;56.70;96065.75;5075890;28;20045;-74
2021/03/11 00:17:05;;;;;;;29.23;18.25;;;;;;;5.05;56.52;96075.34;5075478;28;20047;-74
2021/03/11 00:19:32;;;;;;;27.42;17.85;;;;;;;5.05;56.44;96072.75;5074185;28;20040;-74
2021/03/11 00:21:59;;;;;;;34.35;20.45;;;;;;;5.05;56.51;96075.34;5075717;28;20052;-75
2021/03/11 00:24:26;;;;;;;29.83;18.15;;;;;;;5.05;56.59;96071.97;5074799;28;20044;-74
2021/03/11 00:26:52;;;;;;;30.40;18.17;;;;;;;5.02;56.48;96073.16;5075475;28;20144;-74
2021/03/11 00:29:18;;;;;;;29.40;17.90;;;;;;;5.02;56.49;96074.97;5075290;28;20045;-74
2021/03/11 00:31:45;;;;;;;32.83;19.08;;;;;;;5.05;56.70;96082.34;5075372;28;20033;-74
2021/03/11 00:34:12;;;;;;;29.00;18.83;;;;;;;5.07;56.84;96080.38;5074636;28;20053;-74
2021/03/11 00:36:38;;;;;;;29.90;18.02;;;;;;;5.09;56.59;96078.38;5075176;28;20464;-74
2021/03/11 00:39:06;;;;;;;31.92;19.05;;;;;;;5.11;56.76;96067.81;5074930;28;20053;-74
2021/03/11 00:41:34;;;;;;;27.08;17.25;;;;;;;5.11;56.82;96076.41;5075113;28;20049;-74
2021/03/11 00:44:00;;;;;;;27.30;17.38;;;;;;;5.09;56.66;96079.19;5075125;28;20048;-74
2021/03/11 00:46:26;;;;;;;25.60;15.77;;;;;;;5.11;56.55;96080.78;5074913;28;20041;-74
2021/03/11 00:48:57;;;;;;;26.92;16.35;;;;;;;5.09;56.57;96071.38;5075020;28;20045;-74
2021/03/11 00:51:23;;;;;;;25.63;15.60;;;;;;;5.12;56.66;96064.19;5075034;28;20044;-74
2021/03/11 00:53:49;;;;;;;25.05;16.27;;;;;;;5.12;56.52;96066.78;5074899;28;20033;-74
2021/03/11 00:56:15;;;;;;;25.40;15.32;;;;;;;5.12;56.38;96064.19;5075589;28;20039;-74
2021/03/11 00:58:41;;;;;;;26.83;16.05;;;;;;;5.14;56.58;96072.59;5074569;28;20029;-74
2021/03/11 01:01:08;;;;;;;23.95;14.15;;;;;;;5.17;56.38;96074.84;5074700;28;20043;-74
2021/03/11 01:03:34;;;;;;;19.48;11.98;;;;;;;5.20;56.45;96083.03;5074234;28;20044;-74
2021/03/11 01:06:00;;;;;;;19.75;11.70;;;;;;;5.25;56.58;96088.47;5074731;28;20040;-74
2021/03/11 01:08:26;;;;;;;18.60;9.90;;;;;;;5.32;56.42;96075.50;5074669;28;20037;-74
2021/03/11 01:10:53;;;;;;;15.63;8.38;;;;;;;5.43;56.54;96077.53;5074732;28;20476;-75
2021/03/11 01:13:19;;;;;;;12.05;7.30;;;;;;;5.53;56.18;96064.16;5074979;28;20032;-74
2021/03/11 01:15:46;;;;;;;17.05;6.78;;;;;;;5.63;56.10;96069.81;5074313;28;20037;-74
2021/03/11 01:18:13;;;;;;;11.77;6.78;;;;;;;5.68;56.27;96049.19;5074942;28;20425;-75
2021/03/11 01:20:41;;;;;;;12.02;6.07;;;;;;;5.74;56.00;96028.63;5074313;28;20040;-74
2021/03/11 01:23:07;;;;;;;8.57;5.43;;;;;;;5.79;56.19;96029.59;5074464;28;20040;-74
2021/03/11 01:25:33;;;;;;;9.50;5.30;;;;;;;5.82;56.04;96026.63;5074084;28;20119;-74
2021/03/11 01:27:59;;;;;;;9.85;6.15;;;;;;;5.85;56.28;96021.00;5074145;28;20487;-74
2021/03/11 01:30:26;;;;;;;11.85;6.05;;;;;;;5.87;56.24;95992.19;5074073;28;20507;-74
2021/03/11 01:32:52;;;;;;;11.52;5.93;;;;;;;5.88;56.22;95981.59;5073616;28;20059;-74
2021/03/11 01:35:18;;;;;;;9.35;5.38;;;;;;;5.89;56.62;95983.19;5073879;28;20095;-74
2021/03/11 01:37:44;;;;;;;9.77;5.60;;;;;;;5.92;56.42;95975.97;5074247;28;20036;-74
2021/03/11 01:40:11;;;;;;;9.20;6.15;;;;;;;5.92;56.34;95970.78;5073987;28;20043;-74
2021/03/11 01:42:37;;;;;;;11.45;5.80;;;;;;;5.90;56.58;95948.38;5074167;28;20044;-74
2021/03/11 01:45:09;;;;;;;8.77;5.72;;;;;;;5.90;56.88;95942.38;5073722;28;20424;-74
2021/03/11 01:47:35;;;;;;;8.63;5.43;;;;;;;5.90;56.63;95932.75;5073838;28;20380;-74
2021/03/11 01:50:04;;;;;;;11.13;5.85;;;;;;;5.89;56.48;95922.53;5074048;28;20047;-74
2021/03/11 01:52:32;;;;;;;11.45;6.47;;;;;;;5.89;56.33;95910.31;5073529;28;20060;-74
2021/03/11 01:54:58;;;;;;;9.50;6.50;;;;;;;5.87;56.81;95903.72;5073573;28;20043;-74
2021/03/11 01:57:26;;;;;;;12.95;7.03;;;;;;;5.87;56.87;95901.13;5074102;28;20464;-74
2021/03/11 01:59:53;;;;;;;10.30;6.82;;;;;;;5.87;56.83;95903.72;5073495;28;20032;-74
2021/03/11 02:02:19;;;;;;;11.23;6.15;;;;;;;5.87;56.87;95888.09;5073391;28;20044;-74
2021/03/11 02:04:45;;;;;;;11.15;6.80;;;;;;;5.85;57.01;95892.72;5074020;28;20107;-74
2021/03/11 02:07:11;;;;;;;12.30;6.85;;;;;;;5.85;57.01;95883.09;5074099;28;20483;-74
2021/03/11 02:09:38;;;;;;;11.05;7.32;;;;;;;5.87;57.05;95875.88;5073063;28;20055;-74
2021/03/11 02:12:20;;;;;;;10.43;7.13;;;;;;;5.84;57.55;95867.69;5073567;28;20055;-74
2021/03/11 02:14:56;;;;;;;11.75;6.78;;;;;;;5.83;57.32;95864.28;5073069;28;20055;-74
2021/03/11 02:17:28;;;;;;;10.55;6.97;;;;;;;5.85;57.02;95856.28;5072883;28;20052;-74
2021/03/11 02:20:12;;;;;;;10.07;6.72;;;;;;;5.85;57.41;95867.47;5072509;28;20063;-74
2021/03/11 02:23:09;;;;;;;10.95;6.47;;;;;;;5.84;57.50;95868.50;5073306;28;20514;-74
2021/03/11 02:25:52;;;;;;;11.13;6.85;;;;;;;5.82;57.26;95854.88;5073366;28;20040;-74
2021/03/11 02:28:31;;;;;;;12.55;8.00;;;;;;;5.80;57.09;95838.69;5073871;28;20036;-74
2021/03/11 02:30:58;;;;;;;11.60;7.68;;;;;;;5.79;57.05;95823.25;5061519;28;20051;-74
2021/03/11 02:33:26;;;;;;;15.15;7.75;;;;;;;5.77;56.89;95814.88;5072409;28;20123;-74
2021/03/11 02:35:55;;;;;;;14.60;8.93;;;;;;;5.76;56.85;95811.47;5072899;28;20045;-74
2021/03/11 02:38:23;;;;;;;14.77;8.73;;;;;;;5.74;56.50;95805.66;5073062;28;20029;-74
2021/03/11 02:40:51;;;;;;;13.77;8.98;;;;;;;5.76;56.83;95806.25;5073024;28;20043;-74
2021/03/11 02:43:18;;;;;;;13.60;8.63;;;;;;;5.74;56.68;95805.66;5072498;28;20044;-74
2021/03/11 02:45:46;;;;;;;14.75;9.23;;;;;;;5.71;56.59;95806.06;5073047;28;20394;-74
2021/03/11 02:48:13;;;;;;;13.63;9.40;;;;;;;5.72;56.63;95799.88;5072918;28;20401;-74
2021/03/11 02:50:40;;;;;;;14.80;9.27;;;;;;;5.73;56.62;95804.06;5072920;28;20033;-74
2021/03/11 02:53:11;;;;;;;14.70;8.93;;;;;;;5.75;56.40;95791.63;5073427;28;20040;-74
2021/03/11 02:55:41;;;;;;;13.35;8.88;;;;;;;5.75;56.17;95793.44;5072841;28;20036;-74
2021/03/11 02:58:09;;;;;;;14.50;9.27;;;;;;;5.77;56.28;95796.66;5072942;28;20037;-74
2021/03/11 03:00:37;;;;;;;13.68;8.45;;;;;;;5.76;56.17;95788.06;5072633;28;20394;-74
2021/03/11 03:03:07;;;;;;;11.02;6.97;;;;;;;5.79;55.96;95782.44;5072993;28;20041;-74
2021/03/11 03:05:35;;;;;;;11.55;6.97;;;;;;;5.81;56.24;95775.22;5072880;28;20036;-74
2021/03/11 03:08:03;;;;;;;9.95;7.22;;;;;;;5.83;56.09;95764.63;5072842;28;20028;-74
2021/03/11 03:10:33;;;;;;;12.52;6.82;;;;;;;5.86;55.95;95756.41;5072956;28;20388;-74
2021/03/11 03:13:10;;;;;;;9.48;5.88;;;;;;;5.89;55.31;95754.19;5072490;28;20055;-74
2021/03/11 03:15:36;;;;;;;8.82;6.03;;;;;;;5.93;55.88;95759.78;5073305;28;20025;-74
2021/03/11 03:18:04;;;;;;;11.30;6.13;;;;;;;5.99;56.00;95768.63;5072497;28;20481;-74
2021/03/11 03:20:31;;;;;;;8.45;5.25;;;;;;;6.04;55.73;95758.38;5072691;28;20401;-74
2021/03/11 03:23:04;;;;;;;11.05;5.55;;;;;;;6.10;55.78;95753.13;5072757;28;20408;-74
2021/03/11 03:25:30;;;;;;;9.80;5.13;;;;;;;6.16;56.04;95763.75;5072515;28;20134;-74
2021/03/11 03:27:56;;;;;;;8.88;5.57;;;;;;;6.22;55.98;95768.91;5072703;28;20041;-75
2021/03/11 03:30:24;;;;;;;10.50;5.18;;;;;;;6.26;56.59;95767.50;5061066;28;20045;-74
2021/03/11 03:32:51;;;;;;;7.75;4.93;;;;;;;6.35;56.62;95756.84;5072175;28;20040;-74
2021/03/11 03:35:18;;;;;;;7.60;4.60;;;;;;;6.46;56.85;95758.78;5072698;28;20465;-74
2021/03/11 03:37:44;;;;;;;10.13;5.20;;;;;;;6.58;56.70;95748.53;5072676;28;20047;-74
2021/03/11 03:40:13;;;;;;;7.05;4.82;;;;;;;6.73;56.97;95743.00;5072415;28;20126;-74
2021/03/11 03:42:43;;;;;;;10.00;4.82;;;;;;;6.86;57.17;95748.13;5073068;28;20028;-74
2021/03/11 03:45:12;;;;;;;8.82;4.88;;;;;;;6.96;57.44;95739.84;5072687;28;20041;-74
2021/03/11 03:47:42;;;;;;;9.73;4.95;;;;;;;7.02;56.91;95739.78;5072340;28;20044;-74
2021/03/11 03:50:09;;;;;;;11.80;5.32;;;;;;;7.07;56.85;95737.34;5072369;28;20059;-74
2021/03/11 03:52:39;;;;;;;7.97;4.22;;;;;;;7.14;56.95;95728.66;5072458;28;20496;-74
2021/03/11 03:55:07;;;;;;;9.63;4.65;;;;;;;7.16;56.86;95737.88;5072918;28;20049;-74
2021/03/11 03:57:35;;;;;;;8.07;4.88;;;;;;;7.19;56.96;95723.63;5076050;28;20040;-74
2021/03/11 04:00:06;;;;;;;6.90;4.57;;;;;;;7.21;57.67;95739.84;5074957;28;20044;-74
2021/03/11 04:02:35;;;;;;;7.85;4.93;;;;;;;7.22;57.36;95744.81;5075961;28;20041;-74
2021/03/11 04:05:04;;;;;;;7.13;4.78;;;;;;;7.24;57.55;95755.06;5075628;28;20060;-74
2021/03/11 04:07:30;;;;;;;7.13;4.50;;;;;;;7.23;57.55;95730.78;5076412;28;20036;-74
2021/03/11 04:09:58;;;;;;;14.35;5.05;;;;;;;7.28;57.76;95743.97;5075951;28;20025;-74
2021/03/11 04:12:25;;;;;;;8.60;5.07;;;;;;;7.30;57.84;95738.56;5075566;28;20040;-74
2021/03/11 04:14:52;;;;;;;7.82;4.63;;;;;;;7.31;57.98;95742.78;5075346;28;20496;-74
2021/03/11 04:17:20;;;;;;;8.18;4.20;;;;;;;7.32;58.17;95741.75;5075909;28;20484;-74
2021/03/11 04:19:48;;;;;;;8.70;4.60;;;;;;;7.34;58.02;95738.94;5075087;28;20067;-74
2021/03/11 04:22:14;;;;;;;7.38;3.88;;;;;;;7.35;58.07;95743.94;5075482;28;20041;-74
2021/03/11 04:24:41;;;;;;;8.00;4.32;;;;;;;7.37;58.30;95739.31;5075966;28;20051;-74
2021/03/11 04:27:08;;;;;;;6.97;4.30;;;;;;;7.40;58.34;95730.25;5075322;28;20037;-75
2021/03/11 04:29:35;;;;;;;7.10;4.05;;;;;;;7.40;58.40;95736.25;5075702;28;20043;-74
2021/03/11 04:32:02;;;;;;;8.23;4.38;;;;;;;7.40;58.42;95738.06;5075286;28;20047;-75
2021/03/11 04:34:28;;;;;;;8.70;4.50;;;;;;;7.41;58.44;95739.66;5075056;28;20036;-74
2021/03/11 04:36:56;;;;;;;5.88;4.38;;;;;;;7.38;58.70;95734.88;5074977;28;20047;-75
2021/03/11 04:39:24;;;;;;;9.77;4.93;;;;;;;7.37;58.60;95736.69;5075481;28;20040;-74
2021/03/11 04:41:52;;;;;;;6.65;4.47;;;;;;;7.36;58.92;95731.69;5075274;28;20439;-74
2021/03/11 04:44:22;;;;;;;7.93;5.10;;;;;;;7.38;59.21;95734.88;5075398;28;20465;-74
2021/03/11 04:46:49;;;;;;;8.38;4.53;;;;;;;7.39;59.04;95734.69;5074905;28;20035;-75
2021/03/11 04:49:15;;;;;;;7.50;4.20;;;;;;;7.39;59.08;95745.09;5074463;28;20055;-74
2021/03/11 04:51:43;;;;;;;6.07;4.18;;;;;;;7.39;59.22;95742.50;5074960;28;20396;-74
2021/03/11 04:54:10;;;;;;;6.45;4.63;;;;;;;7.39;59.27;95739.91;5074857;28;20043;-74
2021/03/11 04:56:37;;;;;;;8.75;4.75;;;;;;;7.41;59.32;95740.47;5074664;28;20465;-74
2021/03/11 04:59:03;;;;;;;9.45;5.15;;;;;;;7.41;59.34;95737.03;5074593;28;20044;-74
2021/03/11 05:01:36;;;;;;;5.75;4.32;;;;;;;7.41;59.70;95744.88;5074826;28;20052;-74
2021/03/11 05:04:04;;;;;;;7.03;4.75;;;;;;;7.41;59.57;95735.25;5074468;28;20032;-74
2021/03/11 05:06:30;;;;;;;7.65;4.72;;;;;;;7.44;59.53;95741.84;5074398;28;20405;-74
2021/03/11 05:08:56;;;;;;;5.72;4.18;;;;;;;7.43;59.60;95737.63;5074560;28;20370;-74
2021/03/11 05:11:23;;;;;;;7.45;4.57;;;;;;;7.43;59.67;95728.00;5074695;28;20388;-74
2021/03/11 05:13:49;;;;;;;7.40;4.75;;;;;;;7.43;59.88;95730.63;5073424;28;20048;-74
2021/03/11 05:16:16;;;;;;;7.20;4.15;;;;;;;7.42;59.87;95729.00;5074266;28;20043;-74
2021/03/11 05:18:42;;;;;;;7.10;4.32;;;;;;;7.42;59.98;95726.41;5074654;28;20044;-74
2021/03/11 05:21:08;;;;;;;7.00;4.30;;;;;;;7.41;60.34;95729.22;5074862;28;20063;-74
2021/03/11 05:23:35;;;;;;;6.97;4.43;;;;;;;7.42;60.23;95746.47;5074282;28;20060;-74
2021/03/11 05:26:01;;;;;;;9.10;4.38;;;;;;;7.42;60.27;95743.88;5074291;28;20044;-74
2021/03/11 05:28:27;;;;;;;6.93;3.92;;;;;;;7.42;60.45;95728.22;5074165;28;20040;-74
2021/03/11 05:30:53;;;;;;;10.32;4.28;;;;;;;7.42;60.65;95733.44;5073919;28;20036;-74
2021/03/11 05:33:20;;;;;;;11.65;3.97;;;;;;;7.43;60.69;95714.16;5074463;28;20063;-74
2021/03/11 05:35:46;;;;;;;6.97;3.85;;;;;;;7.44;60.69;95728.81;5073461;28;20040;-74
2021/03/11 05:38:12;;;;;;;7.28;4.43;;;;;;;7.44;60.83;95716.56;5074142;28;20044;-74
2021/03/11 05:40:39;;;;;;;6.72;4.03;;;;;;;7.44;60.87;95698.28;5073821;28;20045;-75
2021/03/11 05:43:09;;;;;;;11.32;4.03;;;;;;;7.46;61.00;95706.69;5074008;28;20043;-74
2021/03/11 05:45:35;;;;;;;8.35;4.68;;;;;;;7.48;60.94;95704.69;5074116;28;20032;-74
2021/03/11 05:48:02;;;;;;;9.75;4.78;;;;;;;7.49;61.39;95693.22;5074245;28;20465;-74
2021/03/11 05:50:29;;;;;;;7.38;4.15;;;;;;;7.50;61.42;95692.22;5073852;28;20033;-74
2021/03/11 05:52:57;;;;;;;9.13;4.00;;;;;;;7.50;61.59;95692.22;5073225;28;20055;-74
2021/03/11 05:55:25;;;;;;;8.13;4.40;;;;;;;7.50;61.33;95710.47;5072423;28;20050;-74
2021/03/11 05:57:52;;;;;;;6.47;4.18;;;;;;;7.53;61.48;95704.81;5073441;28;20490;-74
2021/03/11 06:00:20;;;;;;;8.70;3.97;;;;;;;7.56;61.59;95706.22;5073542;28;20029;-75
2021/03/11 06:02:53;;;;;;;6.38;4.00;;;;;;;7.59;61.45;95710.19;5074059;28;20024;-74
2021/03/11 06:05:20;;;;;;;8.63;3.97;;;;;;;7.62;61.19;95702.75;5073527;28;20392;-74
2021/03/11 06:07:48;;;;;;;8.73;4.25;;;;;;;7.66;61.02;95709.09;5073244;28;20044;-74
2021/03/11 06:10:18;;;;;;;5.93;3.85;;;;;;;7.71;61.04;95703.25;5072846;28;20059;-74
2021/03/11 06:12:45;;;;;;;6.90;3.55;;;;;;;7.76;60.97;95713.03;5073787;28;20024;-74
2021/03/11 06:15:27;;;;;;;7.38;3.30;;;;;;;7.80;60.65;95704.53;5073442;28;20465;-75
2021/03/11 06:17:55;;;;;;;5.45;3.45;;;;;;;7.84;60.75;95712.75;5073250;28;20047;-74
2021/03/11 06:20:21;;;;;;;7.65;3.95;;;;;;;7.85;60.58;95704.69;5073067;28;20048;-74
2021/03/11 06:22:47;;;;;;;7.78;3.70;;;;;;;7.89;60.50;95705.03;5071998;28;20044;-74
2021/03/11 06:25:22;;;;;;;5.05;2.95;;;;;;;7.91;60.29;95703.78;5073243;28;20049;-74
2021/03/11 06:27:49;;;;;;;5.40;3.00;;;;;;;7.93;60.33;95698.34;5073744;28;20080;-74
2021/03/11 06:30:30;;;;;;;6.13;2.63;;;;;;;7.97;59.62;95694.28;5073248;28;20040;-73
2021/03/11 06:32:57;;;;;;;3.80;2.83;;;;;;;7.99;60.32;95709.75;5073261;28;20032;-74
2021/03/11 06:35:24;;;;;;;3.65;2.90;;;;;;;8.03;60.16;95713.53;5073596;28;20036;-74
2021/03/11 06:37:51;;;;;;;4.53;3.17;;;;;;;8.04;60.08;95713.31;5072820;28;20041;-74
2021/03/11 06:40:20;;;;;;;5.18;3.47;;;;;;;8.08;59.83;95713.66;5072926;28;20043;-74
2021/03/11 06:42:47;;;;;;;4.95;2.90;;;;;;;8.11;59.92;95723.66;5073535;28;20032;-73
2021/03/11 06:45:21;;;;;;;3.22;2.47;;;;;;;8.13;59.21;95730.25;5072951;28;20032;-74
2021/03/11 06:47:48;;;;;;;3.67;2.65;;;;;;;8.16;59.79;95739.47;5073228;28;20048;-74
2021/03/11 06:50:15;;;;;;;6.55;3.60;;;;;;;8.19;59.72;95725.97;5073081;28;20043;-74
2021/03/11 06:53:00;;;;;;;7.32;2.78;;;;;;;8.21;58.94;95716.13;5073022;28;20035;-74
2021/03/11 06:55:27;;;;;;;5.50;3.00;;;;;;;8.25;59.43;95711.22;5073137;28;20029;-74
2021/03/11 06:57:53;;;;;;;6.05;2.78;;;;;;;8.30;59.49;95711.38;5073000;28;20040;-74
2021/03/11 07:00:21;;;;;;;5.47;2.97;;;;;;;8.33;59.33;95716.94;5072160;28;20060;-74
2021/03/11 07:02:55;;;;;;;6.43;3.13;;;;;;;8.39;58.89;95719.69;5059361;28;20044;-74
2021/03/11 07:05:38;;;;;;;5.07;2.70;;;;;;;8.41;59.17;95720.31;5072951;28;20040;-74
2021/03/11 07:08:13;;;;;;;4.00;2.88;;;;;;;8.44;59.04;95727.69;5073067;28;20490;-73
2021/03/11 07:10:45;;;;;;;4.30;2.78;;;;;;;8.46;59.08;95720.41;5061269;28;20056;-73
2021/03/11 07:13:12;;;;;;;4.22;3.13;;;;;;;8.48;59.28;95723.59;5072769;28;20028;-74
2021/03/11 07:15:39;;;;;;;8.27;2.70;;;;;;;8.50;59.20;95722.38;5072637;28;20039;-74
2021/03/11 07:18:10;;;;;;;5.22;2.72;;;;;;;8.52;59.16;95714.31;5072897;28;20039;-74
2021/03/11 07:20:36;;;;;;;4.50;2.60;;;;;;;8.56;59.15;95725.13;5072927;28;20048;-74
2021/03/11 07:23:09;;;;;;;7.57;2.40;;;;;;;8.59;58.92;95719.44;5072649;28;20056;-74
2021/03/11 07:25:38;;;;;;;4.22;2.45;;;;;;;8.63;58.96;95705.72;5072492;28;20041;-74
2021/03/11 07:28:06;;;;;;;3.45;2.50;;;;;;;8.66;59.11;95710.50;5073258;28;20028;-74
2021/03/11 07:30:48;;;;;;;7.25;3.78;;;;;;;8.70;58.93;95703.78;5075726;28;20024;-73
2021/03/11 07:33:15;;;;;;;3.97;2.72;;;;;;;8.72;59.05;95706.97;5076506;28;20040;-74
2021/03/11 07:35:44;;;;;;;3.97;2.55;;;;;;;8.74;59.11;95707.56;5076487;28;20036;-74
2021/03/11 07:38:15;;;;;;;4.38;2.95;;;;;;;8.78;59.05;95705.31;5076549;28;20479;-73
2021/03/11 07:40:42;;;;;;;3.65;2.60;;;;;;;8.82;58.98;95709.06;5075863;28;20040;-73
2021/03/11 07:43:09;;;;;;;4.93;2.28;;;;;;;8.85;59.05;95711.22;5076371;28;20036;-74
2021/03/11 07:45:36;;;;;;;3.03;2.65;;;;;;;8.89;59.14;95706.34;5076349;28;20036;-73
2021/03/11 07:48:02;;;;;;;8.32;2.63;;;;;;;8.91;58.84;95705.09;5076200;28;20471;-72
2021/03/11 07:50:29;;;;;;;3.80;2.40;;;;;;;9.11;59.83;95696.94;5076722;28;20044;-72
2021/03/11 07:52:58;;;;;;;4.63;3.40;;;;;;;9.29;58.44;95688.16;5076195;28;20051;-73
2021/03/11 07:55:29;;;;;;;4.30;2.40;;;;;;;9.31;58.54;95685.31;5076139;28;20037;-73
2021/03/11 07:58:03;;;;;;;3.13;2.17;;;;;;;9.33;58.04;95672.81;5075011;28;20032;-73
2021/03/11 08:00:30;;;;;;;6.55;2.30;;;;;;;9.32;58.22;95672.03;5076133;28;20036;-73
2021/03/11 08:03:07;;;;;;;5.38;2.90;;;;;;;9.35;57.84;95657.69;5076339;28;20070;-73
2021/03/11 08:05:38;;;;;;;6.05;2.08;;;;;;;9.40;58.27;95673.47;5075883;28;20032;-73
2021/03/11 08:08:25;;;;;;;4.82;2.42;;;;;;;9.45;57.39;95654.47;5075863;28;20044;-73
2021/03/11 08:11:00;;;;;;;4.15;2.25;;;;;;;9.54;57.06;95659.13;5075976;28;20040;-73
2021/03/11 08:13:32;;;;;;;3.10;1.85;;;;;;;9.66;57.23;95661.75;5075456;28;20036;-73
2021/03/11 08:16:01;;;;;;;3.58;2.50;;;;;;;9.80;57.59;95677.97;5076092;28;20036;-73
2021/03/11 08:18:33;;;;;;;4.55;2.55;;;;;;;9.87;56.97;95678.66;5075741;28;20032;-73
2021/03/11 08:21:00;;;;;;;6.10;2.40;;;;;;;9.90;57.21;95665.06;5075201;28;20405;-73
2021/03/11 08:23:28;;;;;;;2.92;1.98;;;;;;;9.92;57.17;95662.22;5075458;28;20053;-73
2021/03/11 08:25:55;;;;;;;5.22;2.25;;;;;;;9.92;57.10;95663.03;5075788;28;20040;-73
2021/03/11 08:28:22;;;;;;;4.78;2.58;;;;;;;9.96;56.95;95672.00;5075331;28;20456;-73
2021/03/11 08:30:53;;;;;;;7.47;2.38;;;;;;;10.01;56.53;95665.28;5075285;28;20028;-73
2021/03/11 08:33:20;;;;;;;3.30;2.42;;;;;;;10.05;56.71;95664.56;5075260;28;20043;-73
2021/03/11 08:35:50;;;;;;;2.75;1.98;;;;;;;10.07;56.41;95661.72;5074746;28;20033;-73
2021/03/11 08:38:20;;;;;;;2.80;2.00;;;;;;;10.10;56.44;95662.06;5075060;28;20043;-73
2021/03/11 08:40:55;;;;;;;3.38;2.03;;;;;;;10.11;56.71;95647.91;5074335;28;20025;-73
2021/03/11 08:43:37;;;;;;;4.25;1.73;;;;;;;10.15;57.21;95645.63;5074717;28;20067;-73
2021/03/11 08:46:17;;;;;;;4.15;1.95;;;;;;;10.18;57.46;95650.41;5074993;28;20029;-73
2021/03/11 08:48:58;;;;;;;3.15;1.67;;;;;;;10.23;57.87;95624.31;5075227;28;20037;-73
2021/03/11 08:51:24;;;;;;;5.57;1.80;;;;;;;10.31;56.97;95604.78;5075163;28;20495;-73
2021/03/11 08:54:01;;;;;;;2.72;1.95;;;;;;;10.49;57.20;95598.53;5074865;28;20408;-73
2021/03/11 08:56:28;;;;;;;2.13;1.50;;;;;;;10.72;56.85;95594.97;5075085;28;20473;-73
2021/03/11 08:59:01;;;;;;;4.03;2.00;;;;;;;10.89;56.42;95593.13;5074572;28;20041;-73
2021/03/11 09:01:40;;;;;;;3.95;1.30;;;;;;;11.06;55.90;95589.69;5075533;28;20043;-73
2021/03/11 09:04:22;;;;;;;2.33;2.00;;;;;;;11.08;55.20;95580.53;5074295;28;20039;-73
2021/03/11 09:07:01;;;;;;;2.33;1.63;;;;;;;11.07;55.24;95570.28;5074907;28;20044;-73
2021/03/11 09:09:32;;;;;;;2.05;1.40;;;;;;;11.10;55.21;95567.97;5073964;28;20396;-73
2021/03/11 09:12:00;;;;;;;2.55;1.55;;;;;;;11.20;55.85;95584.88;5074886;28;20032;-73
2021/03/11 09:14:29;;;;;;;3.92;1.80;;;;;;;11.28;55.67;95566.88;5074002;28;20048;-73
2021/03/11 09:17:11;;;;;;;4.00;1.40;;;;;;;11.32;54.37;95570.63;5073166;28;20044;-73
2021/03/11 09:19:43;;;;;;;2.75;1.67;;;;;;;11.31;54.59;95570.84;5073694;28;20052;-73
2021/03/11 09:22:21;;;;;;;1.92;1.38;;;;;;;11.32;54.33;95569.81;5074002;28;20389;-73
2021/03/11 09:25:10;;;;;;;3.75;1.65;;;;;;;11.29;54.26;95565.06;5074458;28;20384;-73
2021/03/11 09:27:39;;;;;;;3.92;1.65;;;;;;;11.28;54.91;95571.34;5073189;28;20051;-73
2021/03/11 09:30:11;;;;;;;2.08;1.42;;;;;;;11.27;54.53;95572.38;5073999;28;20468;-74
2021/03/11 09:32:39;;;;;;;3.13;1.63;;;;;;;11.27;55.08;95569.75;5074156;28;20037;-73
2021/03/11 09:35:07;;;;;;;2.22;1.27;;;;;;;11.23;54.92;95566.03;5074743;28;20036;-73
2021/03/11 09:37:57;;;;;;;1.48;1.38;;;;;;;11.24;54.74;95557.13;5074067;28;20040;-73
2021/03/11 09:40:26;;;;;;;3.35;1.70;;;;;;;11.25;55.16;95551.63;5073483;28;20408;-73
2021/03/11 09:43:04;;;;;;;3.35;1.27;;;;;;;11.29;55.10;95546.69;5074229;28;20032;-73
2021/03/11 09:45:35;;;;;;;3.67;1.23;;;;;;;11.37;55.33;95530.50;5073724;28;20033;-73
2021/03/11 09:48:18;;;;;;;5.38;1.40;;;;;;;11.50;55.15;95537.22;5074240;28;20067;-73
2021/03/11 09:50:59;;;;;;;4.18;1.38;;;;;;;11.60;55.17;95547.81;5074053;28;20401;-73
2021/03/11 09:53:35;;;;;;;3.40;1.63;;;;;;;11.67;55.08;95547.63;5061472;28;20401;-73
2021/03/11 09:56:04;;;;;;;1.50;1.40;;;;;;;11.71;54.96;95538.22;5073537;28;20381;-73
2021/03/11 09:58:31;;;;;;;2.20;1.55;;;;;;;11.74;54.98;95532.50;5073899;28;20040;-73
2021/03/11 10:00:57;;;;;;;2.67;1.00;;;;;;;11.72;55.26;95553.75;5073494;28;20037;-73
2021/03/11 10:03:30;;;;;;;2.67;1.10;;;;;;;11.70;55.38;95550.56;5073327;28;20033;-73
2021/03/11 10:05:59;;;;;;;2.65;1.40;;;;;;;11.69;55.26;95519.28;5073931;28;20029;-73
2021/03/11 10:08:33;;;;;;;4.55;1.35;;;;;;;11.69;55.57;95529.78;5073509;28;20044;-73
2021/03/11 10:11:30;;;;;;;4.03;2.13;;;;;;;11.76;55.49;95525.94;5072904;28;20036;-73
2021/03/11 10:14:03;;;;;;;2.45;1.42;;;;;;;11.89;55.69;95522.16;5072106;28;20041;-73
2021/03/11 10:16:32;;;;;;;4.95;1.48;;;;;;;12.01;55.58;95526.44;5073630;28;20035;-74
2021/03/11 10:19:07;;;;;;;2.10;1.15;;;;;;;12.10;55.51;95531.00;5074038;28;20480;-73
2021/03/11 10:21:56;;;;;;;3.72;1.27;;;;;;;12.22;56.34;95535.31;5073350;28;20063;-73
2021/03/11 10:24:51;;;;;;;2.40;1.27;;;;;;;12.34;56.05;95523.56;5073408;28;20047;-73
2021/03/11 10:27:23;;;;;;;2.55;1.05;;;;;;;12.36;55.69;95539.09;5062792;28;20499;-73
2021/03/11 10:30:26;;;;;;;2.25;1.00;;;;;;;12.43;55.85;95517.84;5061879;28;20047;-73
2021/03/11 10:32:55;;;;;;;2.15;1.00;;;;;;;12.49;55.62;95530.78;5061317;28;20028;-73
2021/03/11 10:35:37;;;;;;;8.45;1.15;;;;;;;12.55;55.96;95521.09;5073246;28;20028;-73
2021/03/11 10:38:20;;;;;;;1.73;1.00;;;;;;;12.67;56.41;95516.44;5059296;28;20472;-73
2021/03/11 10:40:47;;;;;;;3.33;0.93;;;;;;;12.76;55.79;95509.66;5073097;28;20051;-73
2021/03/11 10:43:24;;;;;;;7.57;1.48;;;;;;;12.83;56.05;95513.91;5073483;28;20041;-73
2021/03/11 10:45:52;;;;;;;2.78;1.10;;;;;;;12.86;55.73;95511.56;5072070;28;20055;-73
2021/03/11 10:48:18;;;;;;;7.13;1.17;;;;;;;12.86;55.93;95506.31;5072611;28;20111;-73
2021/03/11 10:50:51;;;;;;;3.05;1.30;;;;;;;12.79;56.15;95522.31;5073136;28;20060;-73
2021/03/11 10:53:22;;;;;;;2.53;0.88;;;;;;;12.74;56.16;95518.84;5073058;28;20040;-73
2021/03/11 10:55:49;;;;;;;4.28;1.15;;;;;;;12.66;56.37;95529.84;5072898;28;20044;-73
2021/03/11 10:58:27;;;;;;;3.28;1.35;;;;;;;12.53;57.22;95523.97;5073061;28;20044;-73
2021/03/11 11:01:11;;;;;;;4.03;1.10;;;;;;;12.43;57.95;95539.69;5072984;28;20047;-73
2021/03/11 11:03:38;;;;;;;1.38;1.10;;;;;;;12.37;57.26;95552.00;5059678;28;20032;-72
2021/03/11 11:06:05;;;;;;;3.20;1.15;;;;;;;12.29;57.42;95559.56;5076935;28;20485;-73
2021/03/11 11:08:32;;;;;;;1.48;1.20;;;;;;;12.22;57.55;95570.28;5076776;28;20103;-73
2021/03/11 11:11:01;;;;;;;5.75;1.20;;;;;;;12.13;58.16;95577.03;5076795;28;20039;-73
2021/03/11 11:13:28;;;;;;;4.20;1.25;;;;;;;12.02;59.12;95575.34;5077222;28;20365;-73
2021/03/11 11:15:55;;;;;;;2.63;0.95;;;;;;;11.91;59.72;95582.34;5076969;28;20040;-73
2021/03/11 11:18:21;;;;;;;2.40;1.35;;;;;;;11.78;60.39;95575.59;5076433;28;20032;-73
2021/03/11 11:20:49;;;;;;;1.63;1.05;;;;;;;11.67;61.38;95585.19;5076558;28;20055;-73
2021/03/11 11:23:15;;;;;;;1.70;1.10;;;;;;;11.53;61.98;95581.38;5058784;28;20388;-74
2021/03/11 11:25:42;;;;;;;1.98;1.02;;;;;;;11.42;62.33;95585.69;5077154;28;20495;-73
2021/03/11 11:28:08;;;;;;;2.85;1.10;;;;;;;11.29;63.73;95581.59;5076639;28;20036;-73
2021/03/11 11:30:35;;;;;;;1.85;1.08;;;;;;;11.21;64.18;95589.09;5076751;28;20040;-73
2021/03/11 11:33:01;;;;;;;4.00;1.10;;;;;;;11.10;65.18;95570.59;5076182;28;20372;-73
2021/03/11 11:35:27;;;;;;;2.20;1.27;;;;;;;10.99;65.92;95573.31;5077105;28;20037;-73
2021/03/11 11:37:54;;;;;;;2.05;0.88;;;;;;;10.92;66.19;95568.25;5076088;28;20041;-73
2021/03/11 11:40:20;;;;;;;1.33;0.85;;;;;;;10.84;66.87;95564.22;5076359;28;20035;-73
2021/03/11 11:42:47;;;;;;;1.48;1.27;;;;;;;10.79;67.14;95560.72;5076237;28;20392;-73
2021/03/11 11:45:15;;;;;;;2.90;1.60;;;;;;;10.72;68.01;95563.50;5076001;28;20036;-73
2021/03/11 11:47:41;;;;;;;2.92;1.30;;;;;;;10.70;68.61;95553.25;5066579;28;20055;-72
2021/03/11 11:50:10;;;;;;;3.65;1.58;;;;;;;10.68;69.17;95557.16;5075945;28;20047;-73